createdAt,value
2022-10-30T00:02:32.344Z,11.00
2022-10-30T00:05:21.030Z,10.88
2022-10-30T00:08:08.086Z,11.70
2022-10-30T00:10:55.300Z,11.45
2022-10-30T00:13:44.704Z,10.85
2022-10-30T00:16:31.960Z,10.30
2022-10-30T00:19:19.030Z,10.40
2022-10-30T00:24:53.573Z,10.02
2022-10-30T00:27:40.557Z,9.80
2022-10-30T00:30:27.757Z,10.20
2022-10-30T00:33:15.000Z,9.30
2022-10-30T00:36:02.622Z,10.65
2022-10-30T00:38:51.018Z,9.48
2022-10-30T00:41:41.954Z,11.00
2022-10-30T00:44:38.559Z,10.55
2022-10-30T00:47:31.109Z,11.10
2022-10-30T00:50:22.158Z,11.02
2022-10-30T00:53:12.653Z,10.90
2022-10-30T00:56:06.417Z,12.20
2022-10-30T00:58:59.732Z,12.57
2022-10-30T01:01:47.931Z,11.25
2022-10-30T01:04:38.220Z,13.70
2022-10-30T01:07:25.673Z,13.23
2022-10-30T01:10:13.952Z,13.10
2022-10-30T01:13:03.617Z,14.00
2022-10-30T01:16:02.489Z,12.25
2022-10-30T01:18:53.881Z,12.68
2022-10-30T01:21:55.400Z,12.02
2022-10-30T01:24:51.497Z,11.70
2022-10-30T01:27:45.944Z,11.65
2022-10-30T01:30:46.472Z,11.18
2022-10-30T01:33:44.282Z,10.27
2022-10-30T01:36:37.705Z,10.38
2022-10-30T01:39:28.269Z,11.35
2022-10-30T01:42:54.574Z,12.02
2022-10-30T01:46:01.435Z,11.15
2022-10-30T01:48:58.963Z,11.13
2022-10-30T01:51:56.956Z,10.20
2022-10-30T01:54:53.220Z,10.85
2022-10-30T01:57:46.121Z,11.63
2022-10-30T02:00:33.651Z,12.25
2022-10-30T02:03:22.886Z,12.60
2022-10-30T02:06:10.532Z,13.27
2022-10-30T02:08:57.745Z,11.70
2022-10-30T02:11:46.151Z,12.15
2022-10-30T02:14:37.406Z,11.13
2022-10-30T02:17:27.193Z,10.30
2022-10-30T02:20:19.572Z,11.25
2022-10-30T02:23:08.861Z,10.90
2022-10-30T02:25:56.114Z,11.00
2022-10-30T02:28:43.354Z,11.25
2022-10-30T02:31:31.142Z,10.60
2022-10-30T02:34:18.624Z,11.35
2022-10-30T02:37:06.944Z,11.35
2022-10-30T02:39:54.034Z,10.57
2022-10-30T02:42:41.272Z,10.73
2022-10-30T02:45:28.231Z,10.73
2022-10-30T02:48:15.400Z,10.70
2022-10-30T02:51:03.231Z,10.10
2022-10-30T02:53:51.721Z,9.85
2022-10-30T02:56:40.918Z,10.50
2022-10-30T02:59:28.191Z,10.52
2022-10-30T03:02:15.966Z,10.88
2022-10-30T03:05:03.232Z,11.27
2022-10-30T03:07:51.423Z,11.15
2022-10-30T03:10:40.213Z,12.10
2022-10-30T03:13:28.515Z,12.73
2022-10-30T03:16:17.807Z,11.60
2022-10-30T03:19:05.254Z,10.93
2022-10-30T03:21:54.754Z,10.50
2022-10-30T03:24:42.341Z,11.70
2022-10-30T03:27:31.389Z,11.82
2022-10-30T03:30:18.736Z,10.77
2022-10-30T03:33:05.879Z,11.10
2022-10-30T03:35:53.468Z,11.30
2022-10-30T03:38:40.729Z,10.57
2022-10-30T03:41:29.645Z,11.38
2022-10-30T03:44:18.140Z,11.75
2022-10-30T03:47:05.420Z,11.40
2022-10-30T03:49:57.966Z,12.07
2022-10-30T03:52:44.987Z,11.40
2022-10-30T03:55:32.233Z,10.77
2022-10-30T03:58:19.610Z,10.93
2022-10-30T04:01:09.049Z,11.00
2022-10-30T04:03:59.170Z,11.32
2022-10-30T04:06:46.494Z,10.57
2022-10-30T04:09:33.722Z,10.73
2022-10-30T04:12:20.948Z,11.45
2022-10-30T04:15:09.588Z,10.98
2022-10-30T04:17:58.726Z,10.27
2022-10-30T04:20:47.326Z,9.88
2022-10-30T04:23:35.238Z,9.75
2022-10-30T04:26:22.603Z,9.93
2022-10-30T04:29:09.828Z,10.27
2022-10-30T04:31:56.969Z,9.55
2022-10-30T04:34:45.301Z,11.07
2022-10-30T04:37:32.413Z,9.65
2022-10-30T04:40:19.194Z,9.82
2022-10-30T04:43:14.947Z,10.05
2022-10-30T04:46:06.272Z,10.02
2022-10-30T04:48:53.520Z,10.52
2022-10-30T04:51:42.002Z,9.90
2022-10-30T04:54:29.132Z,9.25
2022-10-30T04:57:16.357Z,10.32
2022-10-30T05:00:05.200Z,10.30
2022-10-30T05:02:52.737Z,9.52
2022-10-30T05:05:41.126Z,10.68
2022-10-30T05:08:30.798Z,10.88
2022-10-30T05:11:20.469Z,10.88
2022-10-30T05:14:07.629Z,11.00
2022-10-30T05:16:54.801Z,10.98
2022-10-30T05:19:42.141Z,10.10
2022-10-30T05:22:29.000Z,10.10
2022-10-30T05:25:17.685Z,10.48
2022-10-30T05:28:06.822Z,10.05
2022-10-30T05:31:01.729Z,10.38
2022-10-30T05:34:09.685Z,9.88
2022-10-30T05:36:59.080Z,11.07
2022-10-30T05:39:46.447Z,10.55
2022-10-30T05:42:47.776Z,11.10
2022-10-30T05:45:35.007Z,9.57
2022-10-30T05:48:23.391Z,9.73
2022-10-30T05:51:10.573Z,10.75
2022-10-30T05:54:00.983Z,9.50
2022-10-30T05:56:49.441Z,11.05
2022-10-30T05:59:37.761Z,9.95
2022-10-30T06:02:25.266Z,9.77
2022-10-30T06:05:12.492Z,10.40
2022-10-30T06:07:59.713Z,9.85
2022-10-30T06:10:46.779Z,9.95
2022-10-30T06:13:41.240Z,9.68
2022-10-30T06:16:34.214Z,10.15
2022-10-30T06:19:33.414Z,9.10
2022-10-30T06:22:36.475Z,10.13
2022-10-30T06:25:39.349Z,8.93
2022-10-30T06:28:41.108Z,9.75
2022-10-30T06:31:28.326Z,9.77
2022-10-30T06:34:17.136Z,9.57
2022-10-30T06:37:04.062Z,10.00
2022-10-30T06:39:51.243Z,8.25
2022-10-30T06:42:57.481Z,8.50
2022-10-30T06:45:59.762Z,9.25
2022-10-30T06:48:47.577Z,9.27
2022-10-30T06:51:37.228Z,8.40
2022-10-30T06:54:24.200Z,8.50
2022-10-30T06:57:20.107Z,9.13
2022-10-30T07:00:25.867Z,9.10
2022-10-30T07:03:35.340Z,9.13
2022-10-30T07:06:22.566Z,9.45
2022-10-30T07:09:11.225Z,9.10
2022-10-30T07:12:02.683Z,8.93
2022-10-30T07:15:22.245Z,8.90
2022-10-30T07:18:24.539Z,9.35
2022-10-30T07:21:15.784Z,8.95
2022-10-30T07:24:02.701Z,8.95
2022-10-30T07:26:56.501Z,8.55
2022-10-30T07:30:17.925Z,8.10
2022-10-30T07:33:23.666Z,8.32
2022-10-30T07:36:25.077Z,8.93
2022-10-30T07:39:24.144Z,8.35
2022-10-30T07:42:26.917Z,8.35
2022-10-30T07:45:46.581Z,8.20
2022-10-30T07:48:51.604Z,8.20
2022-10-30T07:51:50.075Z,8.43
2022-10-30T07:54:38.519Z,8.05
2022-10-30T07:57:50.076Z,8.40
2022-10-30T08:00:59.558Z,8.43
2022-10-30T08:03:51.729Z,7.95
2022-10-30T08:06:47.139Z,8.13
2022-10-30T08:09:34.273Z,8.43
2022-10-30T08:12:22.723Z,7.68
2022-10-30T08:15:11.727Z,7.90
2022-10-30T08:17:58.592Z,7.07
2022-10-30T08:20:50.473Z,7.93
2022-10-30T08:23:37.868Z,7.20
2022-10-30T08:26:31.249Z,5.82
2022-10-30T08:29:18.431Z,5.95
2022-10-30T08:32:08.860Z,6.75
2022-10-30T08:35:28.193Z,5.75
2022-10-30T08:38:15.756Z,6.50
2022-10-30T08:41:04.387Z,5.13
2022-10-30T08:43:53.325Z,6.07
2022-10-30T08:46:40.180Z,5.78
2022-10-30T08:49:28.661Z,5.40
2022-10-30T08:52:18.283Z,5.50
2022-10-30T08:55:10.097Z,5.55
2022-10-30T08:57:57.683Z,5.55
2022-10-30T09:00:44.974Z,5.13
2022-10-30T09:03:51.989Z,5.18
2022-10-30T09:06:58.894Z,5.05
2022-10-30T09:10:03.702Z,5.53
2022-10-30T09:12:56.017Z,5.43
2022-10-30T09:15:44.458Z,5.25
2022-10-30T09:18:32.427Z,5.55
2022-10-30T09:21:19.649Z,4.85
2022-10-30T09:24:13.316Z,5.40
2022-10-30T09:27:00.546Z,4.95
2022-10-30T09:29:48.278Z,5.00
2022-10-30T09:32:42.239Z,4.65
2022-10-30T09:35:32.276Z,4.30
2022-10-30T09:38:19.649Z,4.68
2022-10-30T09:41:24.038Z,4.60
2022-10-30T09:44:21.964Z,4.82
2022-10-30T09:47:23.659Z,4.32
2022-10-30T09:50:26.344Z,4.03
2022-10-30T09:53:31.397Z,4.63
2022-10-30T09:56:30.571Z,4.18
2022-10-30T09:59:30.304Z,4.25
2022-10-30T10:02:34.882Z,4.90
2022-10-30T10:05:25.635Z,4.75
2022-10-30T10:08:47.177Z,4.20
2022-10-30T10:12:00.059Z,4.28
2022-10-30T10:14:49.272Z,4.40
2022-10-30T10:17:42.446Z,4.22
2022-10-30T10:20:34.045Z,4.97
2022-10-30T10:23:28.069Z,3.63
2022-10-30T10:26:30.337Z,4.30
2022-10-30T10:29:42.759Z,4.38
2022-10-30T10:33:12.802Z,4.30
2022-10-30T10:36:18.925Z,4.00
2022-10-30T10:39:18.927Z,4.10
2022-10-30T10:42:18.526Z,3.78
2022-10-30T10:45:23.780Z,4.25
2022-10-30T10:48:32.810Z,3.75
2022-10-30T10:51:23.797Z,3.80
2022-10-30T10:54:15.385Z,3.97
2022-10-30T10:57:06.278Z,4.32
2022-10-30T10:59:57.671Z,3.80
2022-10-30T11:02:52.385Z,4.22
2022-10-30T11:05:47.595Z,3.90
2022-10-30T11:08:35.352Z,3.33
2022-10-30T11:11:22.337Z,3.45
2022-10-30T11:14:14.935Z,3.47
2022-10-30T11:17:14.292Z,3.22
2022-10-30T11:20:14.363Z,3.35
2022-10-30T11:23:01.715Z,4.03
2022-10-30T11:25:49.038Z,4.78
2022-10-30T11:28:42.104Z,4.55
2022-10-30T11:31:34.730Z,3.50
2022-10-30T11:34:29.769Z,4.05
2022-10-30T11:37:31.456Z,3.67
2022-10-30T11:40:21.561Z,3.78
2022-10-30T11:43:12.746Z,3.45
2022-10-30T11:46:00.167Z,3.85
2022-10-30T11:48:54.481Z,3.67
2022-10-30T11:51:44.327Z,3.97
2022-10-30T11:54:37.566Z,3.22
2022-10-30T11:57:29.464Z,3.33
2022-10-30T12:00:19.613Z,3.53
2022-10-30T12:03:28.629Z,3.85
2022-10-30T12:06:20.318Z,3.50
2022-10-30T12:09:13.349Z,3.28
2022-10-30T12:12:10.697Z,3.70
2022-10-30T12:15:10.509Z,3.40
2022-10-30T12:18:01.556Z,3.30
2022-10-30T12:20:53.629Z,3.47
2022-10-30T12:23:41.323Z,3.47
2022-10-30T12:26:30.208Z,3.05
2022-10-30T12:29:21.963Z,3.35
2022-10-30T12:32:15.774Z,3.78
2022-10-30T12:35:09.638Z,3.72
2022-10-30T12:38:00.133Z,3.00
2022-10-30T12:41:01.155Z,3.38
2022-10-30T12:43:57.051Z,3.30
2022-10-30T12:46:49.322Z,3.10
2022-10-30T12:49:41.743Z,3.58
2022-10-30T12:52:34.388Z,2.88
2022-10-30T12:55:27.617Z,3.30
2022-10-30T12:58:23.510Z,3.00
2022-10-30T13:01:17.375Z,3.05
2022-10-30T13:04:11.581Z,3.80
2022-10-30T13:07:04.500Z,3.40
2022-10-30T13:10:03.365Z,3.45
2022-10-30T13:12:54.587Z,3.42
2022-10-30T13:15:46.649Z,3.22
2022-10-30T13:18:33.883Z,3.08
2022-10-30T13:21:29.057Z,3.67
2022-10-30T13:24:23.033Z,3.00
2022-10-30T13:27:16.571Z,3.05
2022-10-30T13:30:06.776Z,3.75
2022-10-30T13:33:05.356Z,3.25
2022-10-30T13:36:00.398Z,3.55
2022-10-30T13:38:56.074Z,2.97
2022-10-30T13:41:57.221Z,3.15
2022-10-30T13:44:54.145Z,3.25
2022-10-30T13:47:49.095Z,3.47
2022-10-30T13:50:55.663Z,3.20
2022-10-30T13:53:46.636Z,3.08
2022-10-30T13:56:36.465Z,3.22
2022-10-30T13:59:42.531Z,3.22
2022-10-30T14:02:43.155Z,2.95
2022-10-30T14:05:37.590Z,3.15
2022-10-30T14:08:34.318Z,3.38
2022-10-30T14:11:21.323Z,3.38
2022-10-30T14:14:30.043Z,3.53
2022-10-30T14:17:18.594Z,3.72
2022-10-30T14:20:28.752Z,4.13
2022-10-30T14:23:20.950Z,4.10
2022-10-30T14:26:16.060Z,3.47
2022-10-30T14:29:46.814Z,3.45
2022-10-30T14:32:40.093Z,3.28
2022-10-30T14:35:34.084Z,3.15
2022-10-30T14:38:27.044Z,3.45
2022-10-30T14:41:36.869Z,3.25
2022-10-30T14:44:57.321Z,3.58
2022-10-30T14:47:58.402Z,4.47
2022-10-30T14:50:58.267Z,4.25
2022-10-30T14:53:58.544Z,3.75
2022-10-30T14:56:48.934Z,4.18
2022-10-30T14:59:36.730Z,3.75
2022-10-30T15:02:35.976Z,4.20
2022-10-30T15:05:45.565Z,3.88
2022-10-30T15:08:59.604Z,3.75
2022-10-30T15:12:08.929Z,3.85
2022-10-30T15:14:59.101Z,4.30
2022-10-30T15:17:48.827Z,3.97
2022-10-30T15:20:39.927Z,4.80
2022-10-30T15:23:30.400Z,6.60
2022-10-30T15:26:22.235Z,6.45
2022-10-30T15:29:18.004Z,6.13
2022-10-30T15:32:15.518Z,5.43
2022-10-30T15:35:04.848Z,4.90
2022-10-30T15:38:05.823Z,4.78
2022-10-30T15:40:58.148Z,5.57
2022-10-30T15:43:45.979Z,4.97
2022-10-30T15:46:33.394Z,5.07
2022-10-30T15:49:28.244Z,5.50
2022-10-30T15:52:17.981Z,5.15
2022-10-30T15:55:10.691Z,4.50
2022-10-30T15:58:04.383Z,4.63
2022-10-30T16:01:00.295Z,5.40
2022-10-30T16:03:52.615Z,4.80
2022-10-30T16:06:39.763Z,5.82
2022-10-30T16:09:29.081Z,4.82
2022-10-30T16:12:17.514Z,5.93
2022-10-30T16:15:08.649Z,6.90
2022-10-30T16:18:07.502Z,6.00
2022-10-30T16:20:57.344Z,9.10
2022-10-30T16:23:49.911Z,10.07
2022-10-30T16:26:38.760Z,9.20
2022-10-30T16:29:28.740Z,8.88
2022-10-30T16:32:17.517Z,9.43
2022-10-30T16:35:06.409Z,9.82
2022-10-30T16:37:54.696Z,8.38
2022-10-30T16:40:41.924Z,7.88
2022-10-30T16:43:31.432Z,7.20
2022-10-30T16:46:46.765Z,6.68
2022-10-30T16:49:35.697Z,7.72
2022-10-30T16:52:26.951Z,8.80
2022-10-30T16:55:21.043Z,8.55
2022-10-30T16:58:08.116Z,8.13
2022-10-30T17:00:56.811Z,9.05
2022-10-30T17:03:45.393Z,8.27
2022-10-30T17:06:40.274Z,10.18
2022-10-30T17:09:30.114Z,11.77
2022-10-30T17:12:21.158Z,9.98
2022-10-30T17:15:14.488Z,11.35
2022-10-30T17:18:12.049Z,10.40
2022-10-30T17:21:06.786Z,13.70
2022-10-30T17:23:56.821Z,14.05
2022-10-30T17:26:43.810Z,17.23
2022-10-30T17:29:46.637Z,15.25
2022-10-30T17:32:45.791Z,16.95
2022-10-30T17:35:35.605Z,17.77
2022-10-30T17:38:24.255Z,19.88
2022-10-30T17:41:14.386Z,22.02
2022-10-30T17:44:02.218Z,22.55
2022-10-30T17:46:51.000Z,20.15
2022-10-30T17:49:38.105Z,13.50
2022-10-30T17:52:25.929Z,13.55
2022-10-30T17:55:26.905Z,17.15
2022-10-30T17:58:14.241Z,15.57
2022-10-30T18:01:03.249Z,16.20
2022-10-30T18:03:50.812Z,15.55
2022-10-30T18:06:37.895Z,16.25
2022-10-30T18:09:24.805Z,17.10
2022-10-30T18:12:15.122Z,16.35
2022-10-30T18:15:12.922Z,20.00
2022-10-30T18:18:00.307Z,16.85
2022-10-30T18:20:47.096Z,17.70
2022-10-30T18:26:41.304Z,11.70
2022-10-30T18:29:29.895Z,15.70
2022-10-30T18:32:17.251Z,11.50
2022-10-30T18:35:13.845Z,10.57
2022-10-30T18:38:01.573Z,11.82
2022-10-30T18:40:50.682Z,12.90
2022-10-30T18:43:37.457Z,11.80
2022-10-30T18:46:26.142Z,11.93
2022-10-30T18:49:13.535Z,10.80
2022-10-30T18:52:00.506Z,10.50
2022-10-30T18:54:47.492Z,10.93
2022-10-30T18:57:34.607Z,8.23
2022-10-30T19:00:25.045Z,8.20
2022-10-30T19:03:13.332Z,8.95
2022-10-30T19:06:00.382Z,10.13
2022-10-30T19:08:48.509Z,11.18
2022-10-30T19:11:38.273Z,12.02
2022-10-30T19:14:26.448Z,13.45
2022-10-30T19:17:13.794Z,13.15
2022-10-30T19:20:02.541Z,14.40
2022-10-30T19:22:49.817Z,14.10
2022-10-30T19:25:37.419Z,14.07
2022-10-30T19:28:25.736Z,14.13
2022-10-30T19:31:16.287Z,14.00
2022-10-30T19:34:04.275Z,11.98
2022-10-30T19:36:52.773Z,12.75
2022-10-30T19:39:39.859Z,13.07
2022-10-30T19:42:27.018Z,12.75
2022-10-30T19:45:14.754Z,12.52
2022-10-30T19:48:12.338Z,13.80
2022-10-30T19:50:59.498Z,13.25
2022-10-30T19:53:48.069Z,15.02
2022-10-30T19:56:35.407Z,15.88
2022-10-30T19:59:22.833Z,14.70
2022-10-30T20:02:12.535Z,14.73
2022-10-30T20:04:59.689Z,14.57
2022-10-30T20:07:58.958Z,14.10
2022-10-30T20:10:51.968Z,15.25
2022-10-30T20:13:39.421Z,14.73
2022-10-30T20:16:26.532Z,14.00
2022-10-30T20:19:28.805Z,14.25
2022-10-30T20:22:15.777Z,13.30
2022-10-30T20:25:02.875Z,13.68
2022-10-30T20:30:45.587Z,13.45
2022-10-30T20:33:32.939Z,13.55
2022-10-30T20:36:20.043Z,14.77
2022-10-30T20:39:07.249Z,15.10
2022-10-30T20:41:54.369Z,14.10
2022-10-30T20:44:42.861Z,14.60
2022-10-30T20:47:30.256Z,13.98
2022-10-30T20:50:18.785Z,14.52
2022-10-30T20:53:06.646Z,14.13
2022-10-30T20:55:54.083Z,13.52
2022-10-30T20:58:41.730Z,13.73
2022-10-30T21:01:30.141Z,13.85
2022-10-30T21:04:17.368Z,14.25
2022-10-30T21:07:04.716Z,14.32
2022-10-30T21:09:51.790Z,13.60
2022-10-30T21:12:38.785Z,14.23
2022-10-30T21:15:26.382Z,14.48
2022-10-30T21:18:15.130Z,14.13
2022-10-30T21:21:02.534Z,13.10
2022-10-30T21:23:54.065Z,14.65
2022-10-30T21:26:41.410Z,15.57
2022-10-30T21:29:31.261Z,14.65
2022-10-30T21:32:21.339Z,14.07
2022-10-30T21:35:10.419Z,15.00
2022-10-30T21:37:57.429Z,13.98
2022-10-30T21:40:44.495Z,14.13
2022-10-30T21:43:31.528Z,15.48
2022-10-30T21:46:18.886Z,16.45
2022-10-30T21:49:07.825Z,16.02
2022-10-30T21:51:56.341Z,16.60
2022-10-30T21:54:43.427Z,16.13
2022-10-30T21:57:30.717Z,17.17
2022-10-30T22:00:18.312Z,14.35
2022-10-30T22:03:05.337Z,14.15
2022-10-30T22:05:52.691Z,14.70
2022-10-30T22:08:41.961Z,13.90
2022-10-30T22:11:29.604Z,14.25
2022-10-30T22:14:16.842Z,14.68
2022-10-30T22:17:03.802Z,14.50
2022-10-30T22:19:50.647Z,14.27
2022-10-30T22:22:37.944Z,14.50
2022-10-30T22:25:26.729Z,13.68
2022-10-30T22:28:13.626Z,13.88
2022-10-30T22:31:04.826Z,15.52
2022-10-30T22:33:52.467Z,14.77
2022-10-30T22:36:39.629Z,13.80
2022-10-30T22:39:26.906Z,14.90
2022-10-30T22:42:15.243Z,13.85
2022-10-30T22:45:02.297Z,13.35
2022-10-30T22:47:49.652Z,13.63
2022-10-30T22:50:36.901Z,13.00
2022-10-30T22:53:24.221Z,12.43
2022-10-30T22:56:17.665Z,12.77
2022-10-30T22:59:08.594Z,13.98
2022-10-30T23:01:55.667Z,12.57
2022-10-30T23:04:42.885Z,11.65
2022-10-30T23:07:30.181Z,11.43
2022-10-30T23:10:17.538Z,11.40
2022-10-30T23:13:04.813Z,12.07
2022-10-30T23:15:56.236Z,12.30
2022-10-30T23:18:46.431Z,12.18
2022-10-30T23:21:33.884Z,12.90
2022-10-30T23:24:21.046Z,12.15
2022-10-30T23:27:08.362Z,12.02
2022-10-30T23:29:55.531Z,12.07
2022-10-30T23:32:44.023Z,12.07
2022-10-30T23:35:31.180Z,12.60
2022-10-30T23:38:18.465Z,11.80
2022-10-30T23:41:05.696Z,12.18
2022-10-30T23:43:54.511Z,13.00
2022-10-30T23:46:42.475Z,13.25
2022-10-30T23:49:34.007Z,13.52
2022-10-30T23:52:21.315Z,12.20
2022-10-30T23:55:09.747Z,14.20
2022-10-30T23:57:57.178Z,13.47
